createdAt,value
2023-04-29T00:00:30.998Z,97.10
2023-04-29T00:03:01.853Z,97.10
2023-04-29T00:05:29.397Z,97.10
2023-04-29T00:07:58.079Z,97.10
2023-04-29T00:10:25.199Z,97.10
2023-04-29T00:12:52.250Z,97.10
2023-04-29T00:15:19.700Z,97.10
2023-04-29T00:17:47.369Z,97.20
2023-04-29T00:20:14.900Z,97.20
2023-04-29T00:22:41.942Z,97.30
2023-04-29T00:25:12.092Z,97.30
2023-04-29T00:27:39.588Z,97.30
2023-04-29T00:30:10.478Z,97.30
2023-04-29T00:32:38.952Z,97.40
2023-04-29T00:35:09.751Z,97.40
2023-04-29T00:37:37.390Z,97.50
2023-04-29T00:40:05.315Z,97.50
2023-04-29T00:42:35.495Z,97.50
2023-04-29T00:45:03.708Z,97.50
2023-04-29T00:47:30.832Z,97.50
2023-04-29T00:49:58.167Z,97.60
2023-04-29T00:52:31.613Z,97.60
2023-04-29T00:55:00.118Z,97.70
2023-04-29T00:57:30.474Z,97.70
2023-04-29T00:59:59.485Z,97.80
2023-04-29T01:02:27.173Z,97.80
2023-04-29T01:04:55.308Z,97.80
2023-04-29T01:07:51.603Z,97.80
2023-04-29T01:10:19.976Z,97.80
2023-04-29T01:13:01.860Z,98.00
2023-04-29T01:15:55.619Z,97.70
2023-04-29T01:18:28.132Z,97.70
2023-04-29T01:20:57.457Z,97.70
2023-04-29T01:23:29.137Z,97.70
2023-04-29T01:25:58.266Z,97.70
2023-04-29T01:29:02.447Z,97.70
2023-04-29T01:31:41.923Z,97.60
2023-04-29T01:34:23.586Z,97.60
2023-04-29T01:37:10.395Z,97.60
2023-04-29T01:40:08.272Z,97.60
2023-04-29T01:42:53.755Z,97.60
2023-04-29T01:45:22.789Z,97.50
2023-04-29T01:47:53.747Z,97.50
2023-04-29T01:50:21.447Z,97.50
2023-04-29T01:52:49.265Z,97.50
2023-04-29T01:55:16.774Z,97.50
2023-04-29T01:57:54.046Z,97.50
2023-04-29T02:00:56.278Z,97.50
2023-04-29T02:03:24.566Z,97.50
2023-04-29T02:05:55.308Z,97.50
2023-04-29T02:08:22.529Z,97.50
2023-04-29T02:11:01.205Z,97.60
2023-04-29T02:13:48.938Z,97.50
2023-04-29T02:16:17.258Z,97.50
2023-04-29T02:18:51.215Z,97.50
2023-04-29T02:21:19.340Z,97.50
2023-04-29T02:23:46.594Z,97.50
2023-04-29T02:26:15.506Z,97.40
2023-04-29T02:28:42.769Z,97.40
2023-04-29T02:31:09.916Z,97.40
2023-04-29T02:33:37.094Z,97.40
2023-04-29T02:36:04.644Z,97.40
2023-04-29T02:38:31.818Z,97.40
2023-04-29T02:40:59.035Z,97.40
2023-04-29T02:43:26.398Z,97.40
2023-04-29T02:45:53.557Z,97.40
2023-04-29T02:48:20.797Z,97.40
2023-04-29T02:50:48.493Z,97.40
2023-04-29T02:53:16.565Z,97.40
2023-04-29T02:55:44.207Z,97.40
2023-04-29T02:58:11.238Z,97.40
2023-04-29T03:00:40.610Z,97.40
2023-04-29T03:03:07.825Z,97.30
2023-04-29T03:05:35.585Z,97.40
2023-04-29T03:08:04.272Z,97.30
2023-04-29T03:10:31.720Z,97.30
2023-04-29T03:13:02.417Z,97.40
2023-04-29T03:15:31.036Z,97.40
2023-04-29T03:18:01.932Z,97.40
2023-04-29T03:20:29.829Z,97.40
2023-04-29T03:22:56.879Z,97.40
2023-04-29T03:25:24.095Z,97.40
2023-04-29T03:27:51.796Z,97.40
2023-04-29T03:30:21.920Z,97.30
2023-04-29T03:32:53.338Z,97.30
2023-04-29T03:35:20.638Z,97.30
2023-04-29T03:38:23.309Z,97.30
2023-04-29T03:40:50.488Z,97.30
2023-04-29T03:43:18.412Z,97.30
2023-04-29T03:45:45.938Z,97.30
2023-04-29T03:48:17.680Z,97.30
2023-04-29T03:50:45.258Z,97.30
2023-04-29T03:53:14.192Z,97.30
2023-04-29T03:55:41.516Z,97.30
2023-04-29T03:58:10.416Z,97.30
2023-04-29T04:00:37.923Z,97.30
2023-04-29T04:03:09.996Z,97.30
2023-04-29T04:05:38.475Z,97.30
2023-04-29T04:08:09.452Z,97.30
2023-04-29T04:10:49.113Z,97.20
2023-04-29T04:13:43.349Z,97.20
2023-04-29T04:16:11.895Z,97.20
2023-04-29T04:18:40.231Z,97.20
2023-04-29T04:21:12.120Z,97.20
2023-04-29T04:23:42.642Z,97.20
2023-04-29T04:26:12.249Z,97.20
2023-04-29T04:28:53.454Z,97.20
2023-04-29T04:31:32.547Z,97.20
2023-04-29T04:34:00.142Z,97.20
2023-04-29T04:36:32.721Z,97.10
2023-04-29T04:39:00.619Z,97.10
2023-04-29T04:41:27.960Z,97.10
2023-04-29T04:43:57.607Z,97.10
2023-04-29T04:46:35.314Z,97.10
2023-04-29T04:49:25.366Z,97.00
2023-04-29T04:51:54.026Z,97.00
2023-04-29T04:54:23.082Z,97.00
2023-04-29T04:56:54.530Z,97.00
2023-04-29T04:59:21.651Z,97.00
2023-04-29T05:01:48.791Z,97.00
2023-04-29T05:04:16.679Z,97.00
2023-04-29T05:06:43.892Z,96.90
2023-04-29T05:09:10.991Z,96.90
2023-04-29T05:11:38.587Z,96.90
2023-04-29T05:14:10.645Z,96.90
2023-04-29T05:16:38.265Z,96.90
2023-04-29T05:19:05.872Z,96.90
2023-04-29T05:21:38.237Z,96.80
2023-04-29T05:24:06.419Z,96.80
2023-04-29T05:26:33.570Z,97.00
2023-04-29T05:29:01.928Z,96.70
2023-04-29T05:31:34.055Z,96.60
2023-04-29T05:34:03.776Z,96.60
2023-04-29T05:36:31.855Z,96.50
2023-04-29T05:39:01.935Z,96.50
2023-04-29T05:41:30.002Z,96.50
2023-04-29T05:44:23.451Z,96.40
2023-04-29T05:46:51.823Z,96.40
2023-04-29T05:49:19.435Z,96.30
2023-04-29T05:51:46.551Z,96.30
2023-04-29T05:54:13.777Z,96.20
2023-04-29T05:56:41.417Z,96.50
2023-04-29T05:59:09.718Z,96.20
2023-04-29T06:01:37.054Z,96.30
2023-04-29T06:04:05.077Z,96.20
2023-04-29T06:06:42.617Z,96.20
2023-04-29T06:09:27.549Z,96.10
2023-04-29T06:11:58.039Z,96.00
2023-04-29T06:14:25.298Z,96.00
2023-04-29T06:16:53.870Z,96.00
2023-04-29T06:19:21.345Z,95.90
2023-04-29T06:21:49.531Z,95.80
2023-04-29T06:24:16.759Z,95.80
2023-04-29T06:26:43.929Z,95.80
2023-04-29T06:29:11.511Z,95.80
2023-04-29T06:31:38.753Z,95.70
2023-04-29T06:34:06.062Z,95.60
2023-04-29T06:36:36.504Z,95.50
2023-04-29T06:39:19.180Z,95.50
2023-04-29T06:42:10.330Z,95.50
2023-04-29T06:44:55.951Z,95.40
2023-04-29T06:47:25.705Z,95.40
2023-04-29T06:50:06.962Z,95.40
2023-04-29T06:52:34.732Z,95.30
2023-04-29T06:55:02.037Z,95.30
2023-04-29T06:57:29.255Z,95.10
2023-04-29T06:59:56.461Z,95.10
2023-04-29T07:02:25.131Z,95.10
2023-04-29T07:04:52.784Z,94.80
2023-04-29T07:07:20.058Z,94.80
2023-04-29T07:09:47.082Z,94.80
2023-04-29T07:12:14.528Z,94.80
2023-04-29T07:14:41.910Z,94.70
2023-04-29T07:17:09.064Z,94.70
2023-04-29T07:19:37.562Z,94.60
2023-04-29T07:22:04.960Z,94.50
2023-04-29T07:24:32.084Z,94.40
2023-04-29T07:26:59.260Z,94.30
2023-04-29T07:29:26.798Z,94.30
2023-04-29T07:31:54.099Z,94.20
2023-04-29T07:34:21.385Z,94.20
2023-04-29T07:36:48.414Z,94.10
2023-04-29T07:39:16.456Z,94.00
2023-04-29T07:41:46.318Z,93.80
2023-04-29T07:44:14.708Z,93.80
2023-04-29T07:46:43.313Z,93.70
2023-04-29T07:49:10.464Z,93.70
2023-04-29T07:51:37.742Z,93.70
2023-04-29T07:54:05.020Z,93.60
2023-04-29T07:56:32.242Z,93.40
2023-04-29T07:59:01.477Z,93.10
2023-04-29T08:01:29.194Z,93.10
2023-04-29T08:03:56.661Z,93.00
2023-04-29T08:06:29.863Z,92.90
2023-04-29T08:08:57.018Z,92.90
2023-04-29T08:11:29.747Z,92.70
2023-04-29T08:13:59.327Z,92.60
2023-04-29T08:16:35.428Z,92.50
2023-04-29T08:19:02.744Z,92.30
2023-04-29T08:21:37.965Z,92.30
2023-04-29T08:24:08.091Z,92.20
2023-04-29T08:26:39.329Z,92.00
2023-04-29T08:29:09.132Z,91.90
2023-04-29T08:31:36.280Z,91.90
2023-04-29T08:34:03.304Z,91.80
2023-04-29T08:36:30.480Z,91.70
2023-04-29T08:38:57.637Z,91.50
2023-04-29T08:41:26.623Z,91.30
2023-04-29T08:43:53.944Z,91.20
2023-04-29T08:46:22.610Z,91.20
2023-04-29T08:48:50.231Z,91.10
2023-04-29T08:51:17.483Z,90.90
2023-04-29T08:53:44.667Z,91.10
2023-04-29T08:56:21.534Z,90.80
2023-04-29T08:58:59.304Z,90.60
2023-04-29T09:01:30.818Z,90.50
2023-04-29T09:04:28.984Z,90.20
2023-04-29T09:07:08.210Z,90.10
2023-04-29T09:09:36.775Z,89.60
2023-04-29T09:12:03.857Z,89.80
2023-04-29T09:14:34.360Z,89.60
2023-04-29T09:17:01.534Z,89.00
2023-04-29T09:19:34.395Z,88.60
2023-04-29T09:22:07.377Z,88.40
2023-04-29T09:24:34.656Z,88.10
2023-04-29T09:27:03.459Z,87.10
2023-04-29T09:29:33.316Z,86.80
2023-04-29T09:32:00.818Z,86.30
2023-04-29T09:34:41.117Z,85.90
2023-04-29T09:37:27.188Z,85.40
2023-04-29T09:40:02.562Z,83.70
2023-04-29T09:42:30.023Z,83.40
2023-04-29T09:45:01.214Z,83.20
2023-04-29T09:47:36.517Z,83.50
2023-04-29T09:50:16.788Z,83.60
2023-04-29T09:52:43.931Z,82.60
2023-04-29T09:55:12.775Z,82.60
2023-04-29T09:57:45.026Z,82.40
2023-04-29T10:00:14.750Z,82.70
2023-04-29T10:02:54.410Z,82.20
2023-04-29T10:05:23.332Z,82.40
2023-04-29T10:07:53.169Z,82.90
2023-04-29T10:10:23.324Z,82.90
2023-04-29T10:13:09.020Z,82.60
2023-04-29T10:15:43.277Z,82.70
2023-04-29T10:18:21.219Z,82.60
2023-04-29T10:20:50.976Z,81.60
2023-04-29T10:23:20.064Z,81.50
2023-04-29T10:25:53.748Z,81.20
2023-04-29T10:28:41.920Z,80.90
2023-04-29T10:31:10.293Z,79.90
2023-04-29T10:37:38.223Z,79.60
2023-04-29T10:40:15.309Z,80.70
2023-04-29T10:42:42.664Z,80.30
2023-04-29T10:45:33.045Z,80.20
2023-04-29T10:50:47.552Z,80.20
2023-04-29T10:53:21.161Z,80.20
2023-04-29T10:55:54.925Z,79.60
2023-04-29T10:58:40.812Z,79.70
2023-04-29T11:01:14.371Z,79.20
2023-04-29T11:04:04.516Z,79.80
2023-04-29T11:06:35.161Z,79.60
2023-04-29T11:09:09.205Z,79.80
2023-04-29T11:11:43.754Z,79.50
2023-04-29T11:14:12.638Z,79.00
2023-04-29T11:16:49.638Z,78.30
2023-04-29T11:19:18.239Z,77.80
2023-04-29T11:21:49.621Z,77.90
2023-04-29T11:24:17.550Z,78.10
2023-04-29T11:26:44.958Z,78.30
2023-04-29T11:29:14.846Z,78.40
2023-04-29T11:31:42.112Z,77.80
2023-04-29T11:34:29.522Z,77.90
2023-04-29T11:36:56.861Z,77.20
2023-04-29T11:39:25.014Z,77.30
2023-04-29T11:41:52.845Z,77.20
2023-04-29T11:44:23.518Z,76.40
2023-04-29T11:46:51.707Z,74.70
2023-04-29T11:49:21.418Z,74.70
2023-04-29T11:51:48.634Z,75.20
2023-04-29T11:54:15.767Z,75.60
2023-04-29T11:56:43.100Z,76.00
2023-04-29T11:59:40.660Z,75.80
2023-04-29T12:02:13.577Z,76.20
2023-04-29T12:04:47.827Z,76.30
2023-04-29T12:07:17.116Z,76.60
2023-04-29T12:09:49.705Z,76.60
2023-04-29T12:12:17.018Z,76.20
2023-04-29T12:14:44.938Z,76.30
2023-04-29T12:17:14.572Z,76.10
2023-04-29T12:19:44.456Z,75.90
2023-04-29T12:22:12.160Z,75.10
2023-04-29T12:25:23.884Z,73.20
2023-04-29T12:27:51.111Z,71.70
2023-04-29T12:30:18.164Z,72.60
2023-04-29T12:32:54.225Z,72.90
2023-04-29T12:35:24.381Z,73.80
2023-04-29T12:37:51.840Z,74.40
2023-04-29T12:40:20.761Z,74.70
2023-04-29T12:42:48.281Z,74.60
2023-04-29T12:45:27.933Z,74.40
2023-04-29T12:48:02.627Z,74.20
2023-04-29T12:58:33.917Z,72.20
2023-04-29T13:01:01.438Z,72.00
2023-04-29T13:03:33.401Z,72.00
2023-04-29T13:06:03.285Z,72.30
2023-04-29T13:08:30.845Z,72.70
2023-04-29T13:10:58.002Z,72.60
2023-04-29T13:13:30.654Z,72.60
2023-04-29T13:16:09.750Z,72.30
2023-04-29T13:18:39.447Z,71.80
2023-04-29T13:26:18.762Z,70.80
2023-04-29T13:28:51.699Z,69.70
2023-04-29T13:31:45.535Z,69.60
2023-04-29T13:37:13.927Z,69.90
2023-04-29T13:39:45.601Z,69.80
2023-04-29T13:43:51.551Z,69.90
2023-04-29T13:46:38.405Z,69.80
2023-04-29T13:49:29.220Z,70.40
2023-04-29T13:57:44.275Z,70.70
2023-04-29T13:59:48.377Z,70.90
2023-04-29T14:02:25.518Z,71.10
2023-04-29T14:04:54.408Z,71.00
2023-04-29T14:07:22.527Z,71.00
2023-04-29T14:09:49.536Z,70.90
2023-04-29T14:12:16.762Z,70.90
2023-04-29T14:14:43.905Z,70.60
2023-04-29T14:17:11.087Z,70.40
2023-04-29T14:19:38.327Z,70.50
2023-04-29T14:22:05.893Z,70.60
2023-04-29T14:25:12.263Z,70.50
2023-04-29T14:27:39.435Z,70.50
2023-04-29T14:30:07.220Z,70.40
2023-04-29T14:32:37.081Z,70.20
2023-04-29T14:35:04.355Z,70.10
2023-04-29T14:37:35.773Z,69.80
2023-04-29T14:45:56.141Z,67.40
2023-04-29T14:48:39.751Z,67.60
2023-04-29T14:51:07.590Z,67.90
2023-04-29T14:53:43.175Z,68.30
2023-04-29T14:57:00.641Z,68.80
2023-04-29T14:59:36.123Z,69.20
2023-04-29T15:02:27.010Z,69.40
2023-04-29T15:04:59.939Z,70.40
2023-04-29T15:07:35.885Z,69.70
2023-04-29T15:10:19.848Z,69.60
2023-04-29T15:12:52.785Z,69.60
2023-04-29T15:15:22.707Z,69.50
2023-04-29T15:17:55.447Z,69.30
2023-04-29T15:21:07.383Z,69.20
2023-04-29T15:24:04.902Z,69.20
2023-04-29T15:27:13.682Z,69.50
2023-04-29T15:29:59.767Z,69.70
2023-04-29T15:33:37.982Z,69.90
2023-04-29T15:36:06.646Z,69.80
2023-04-29T15:38:43.179Z,70.00
2023-04-29T15:41:10.612Z,70.00
2023-04-29T15:43:51.985Z,70.10
2023-04-29T15:46:19.761Z,70.20
2023-04-29T15:54:11.153Z,70.20
2023-04-29T15:57:02.831Z,70.30
2023-04-29T16:00:47.194Z,70.50
2023-04-29T16:03:53.598Z,70.50
2023-04-29T16:06:39.108Z,70.40
2023-04-29T16:15:19.940Z,70.50
2023-04-29T16:17:51.353Z,70.50
2023-04-29T16:20:21.293Z,70.90
2023-04-29T16:22:48.778Z,71.10
2023-04-29T16:25:21.478Z,71.30
2023-04-29T16:27:55.259Z,71.30
2023-04-29T16:30:25.177Z,71.50
2023-04-29T16:32:54.703Z,71.70
2023-04-29T16:35:42.650Z,71.80
2023-04-29T16:38:20.075Z,71.90
2023-04-29T16:40:52.270Z,72.10
2023-04-29T16:43:24.959Z,70.30
2023-04-29T16:46:01.270Z,68.30
2023-04-29T16:49:30.345Z,68.30
2023-04-29T16:52:15.492Z,68.90
2023-04-29T16:54:42.630Z,69.40
2023-04-29T16:57:09.563Z,69.80
2023-04-29T16:59:36.633Z,69.60
2023-04-29T17:02:06.770Z,68.50
2023-04-29T17:04:41.464Z,68.20
2023-04-29T17:10:36.807Z,68.90
2023-04-29T17:10:49.488Z,69.20
2023-04-29T17:13:41.624Z,67.80
2023-04-29T17:17:07.949Z,66.60
2023-04-29T17:19:36.329Z,64.30
2023-04-29T17:25:29.519Z,63.60
2023-04-29T17:27:59.250Z,63.70
2023-04-29T17:30:44.502Z,62.90
2023-04-29T17:33:30.908Z,61.80
2023-04-29T17:36:29.980Z,61.40
2023-04-29T17:39:01.045Z,60.80
2023-04-29T17:41:31.049Z,60.50
2023-04-29T17:43:59.302Z,59.90
2023-04-29T17:46:26.660Z,61.60
2023-04-29T17:49:01.348Z,63.30
2023-04-29T17:51:35.057Z,64.50
2023-04-29T17:54:05.855Z,65.60
2023-04-29T17:56:43.707Z,65.90
2023-04-29T18:03:46.414Z,66.90
2023-04-29T18:06:52.214Z,67.40
2023-04-29T18:12:19.236Z,67.90
2023-04-29T18:14:50.116Z,68.00
2023-04-29T18:17:29.353Z,68.20
2023-04-29T18:21:18.808Z,68.30
2023-04-29T18:23:39.436Z,68.50
2023-04-29T18:26:06.857Z,68.80
2023-04-29T18:28:39.208Z,69.00
2023-04-29T18:31:09.505Z,69.10
2023-04-29T18:36:44.377Z,69.40
2023-04-29T18:39:40.839Z,69.60
2023-04-29T18:42:15.980Z,69.90
2023-04-29T18:49:39.609Z,70.20
2023-04-29T18:52:24.514Z,70.50
2023-04-29T18:59:15.872Z,71.10
2023-04-29T19:01:43.435Z,71.40
2023-04-29T19:04:10.742Z,71.60
2023-04-29T19:06:38.369Z,71.80
2023-04-29T19:09:11.459Z,71.90
2023-04-29T19:11:49.111Z,72.20
2023-04-29T19:14:18.610Z,72.30
2023-04-29T19:16:48.932Z,72.50
2023-04-29T19:19:18.924Z,72.70
2023-04-29T19:21:46.307Z,72.90
2023-04-29T19:24:55.968Z,73.00
2023-04-29T19:27:24.017Z,73.00
2023-04-29T19:30:13.964Z,73.30
2023-04-29T19:32:39.560Z,73.40
2023-04-29T19:35:10.356Z,73.70
2023-04-29T19:37:37.710Z,73.80
2023-04-29T19:40:09.258Z,73.90
2023-04-29T19:42:53.950Z,74.10
2023-04-29T19:45:21.419Z,74.90
2023-04-29T19:47:50.019Z,74.50
2023-04-29T19:50:19.780Z,74.70
2023-04-29T19:52:47.463Z,74.70
2023-04-29T19:55:21.571Z,74.80
2023-04-29T19:58:07.855Z,75.00
2023-04-29T20:00:49.623Z,75.00
2023-04-29T20:04:06.792Z,75.30
2023-04-29T20:06:37.760Z,75.40
2023-04-29T20:09:06.182Z,75.70
2023-04-29T20:11:40.743Z,75.80
2023-04-29T20:14:11.730Z,75.90
2023-04-29T20:16:41.680Z,76.10
2023-04-29T20:22:07.092Z,76.50
2023-04-29T20:24:34.337Z,76.60
2023-04-29T20:27:04.993Z,76.70
2023-04-29T20:29:39.754Z,76.80
2023-04-29T20:32:28.132Z,77.00
2023-04-29T20:35:10.540Z,77.10
2023-04-29T20:38:00.382Z,77.20
2023-04-29T20:40:42.753Z,77.40
2023-04-29T20:43:16.563Z,77.60
2023-04-29T20:46:18.675Z,77.70
2023-04-29T20:48:46.270Z,77.90
2023-04-29T20:51:18.210Z,78.10
2023-04-29T20:54:08.508Z,78.20
2023-04-29T20:56:56.162Z,78.30
2023-04-29T21:03:22.669Z,78.40
2023-04-29T21:05:59.018Z,78.70
2023-04-29T21:08:33.551Z,78.80
2023-04-29T21:11:01.763Z,79.00
2023-04-29T21:13:31.345Z,79.10
2023-04-29T21:16:00.854Z,79.20
2023-04-29T21:18:31.176Z,79.40
2023-04-29T21:21:00.761Z,79.50
2023-04-29T21:23:30.155Z,79.70
2023-04-29T21:25:57.680Z,79.90
2023-04-29T21:28:25.145Z,80.00
2023-04-29T21:31:00.499Z,80.10
2023-04-29T21:33:36.388Z,80.20
2023-04-29T21:36:03.514Z,80.40
2023-04-29T21:38:30.701Z,80.50
2023-04-29T21:41:10.077Z,80.70
2023-04-29T21:43:37.481Z,80.80
2023-04-29T21:46:07.722Z,80.80
2023-04-29T21:48:35.049Z,81.00
2023-04-29T21:51:08.008Z,81.10
2023-04-29T21:53:35.285Z,81.20
2023-04-29T21:56:02.344Z,81.40
2023-04-29T21:58:29.688Z,81.50
2023-04-29T22:01:03.124Z,81.60
2023-04-29T22:03:47.893Z,81.70
2023-04-29T22:06:18.128Z,81.80
2023-04-29T22:09:09.586Z,82.00
2023-04-29T22:11:49.360Z,82.10
2023-04-29T22:14:21.861Z,82.40
2023-04-29T22:17:00.133Z,82.50
2023-04-29T22:19:30.241Z,82.60
2023-04-29T22:21:59.789Z,82.60
2023-04-29T22:24:26.991Z,82.90
2023-04-29T22:27:05.506Z,82.90
2023-04-29T22:29:53.932Z,83.10
2023-04-29T22:32:20.940Z,83.10
2023-04-29T22:35:17.288Z,83.30
2023-04-29T22:37:44.494Z,83.40
2023-04-29T22:40:13.694Z,83.50
2023-04-29T22:42:51.202Z,83.60
2023-04-29T22:45:18.463Z,83.80
2023-04-29T22:47:45.717Z,83.90
2023-04-29T22:50:12.968Z,84.00
2023-04-29T22:52:45.119Z,84.10
2023-04-29T22:55:12.346Z,84.20
2023-04-29T22:57:39.539Z,84.40
2023-04-29T23:00:09.319Z,84.50
2023-04-29T23:03:00.297Z,84.60
2023-04-29T23:05:37.494Z,84.70
2023-04-29T23:08:11.451Z,84.90
2023-04-29T23:24:42.794Z,85.20
2023-04-29T23:28:37.874Z,85.50
2023-04-29T23:36:07.864Z,85.60
